Time;durP1;ratioP1;P1;durP2;ratioP2;P2;SDS_P1;SDS_P2;PMS_P1;PMS_P2;Temp;Humidity;BMP_temperature;BMP_pressure;BME280_temperature;BME280_humidity;BME280_pressure;Samples;Min_cycle;Max_cycle;Signal;HPM_P1;HPM_P2
2022/10/04 00:00:27;;;;;;;1.73;1.63;;;;;;;7.09;100.00;101073.09;5043602;28;20514;-53
2022/10/04 00:03:08;;;;;;;1.03;0.53;;;;;;;6.94;100.00;101065.19;5034074;28;20459;-53
2022/10/04 00:05:37;;;;;;;2.70;1.67;;;;;;;6.94;100.00;101066.06;5028015;28;20474;-53
2022/10/04 00:08:37;;;;;;;1.43;1.40;;;;;;;7.07;100.00;101072.22;5037335;28;20944;-53
2022/10/04 00:11:29;;;;;;;3.07;2.50;;;;;;;6.79;100.00;101071.34;5036456;28;20455;-53
2022/10/04 00:14:21;;;;;;;1.87;1.20;;;;;;;6.94;100.00;101073.09;5032266;28;20909;-53
2022/10/04 00:16:48;;;;;;;1.83;1.73;;;;;;;7.07;100.00;101069.56;5023378;28;20537;-53
2022/10/04 00:19:14;;;;;;;1.47;1.37;;;;;;;7.07;100.00;101080.13;5036711;28;20506;-52
2022/10/04 00:22:11;;;;;;;0.80;0.80;;;;;;;7.06;100.00;101089.84;5046537;28;20459;-53
2022/10/04 00:25:06;;;;;;;2.03;1.87;;;;;;;6.83;100.00;101081.03;5035857;28;20818;-53
2022/10/04 00:27:37;;;;;;;0.87;0.87;;;;;;;6.62;100.00;101078.41;5036595;28;20569;-52
2022/10/04 00:30:03;;;;;;;2.80;1.00;;;;;;;6.65;100.00;101076.66;5040259;28;20501;-52
2022/10/04 00:32:39;;;;;;;9.73;2.33;;;;;;;6.71;100.00;101073.13;5033758;28;20455;-53
2022/10/04 00:35:24;;;;;;;2.30;2.20;;;;;;;6.69;100.00;101075.75;5041474;28;21012;-53
2022/10/04 00:38:06;;;;;;;0.73;0.70;;;;;;;6.87;100.00;101076.66;5024604;28;20458;-52
2022/10/04 00:40:37;;;;;;;4.67;1.90;;;;;;;6.98;100.00;101074.84;5039308;28;20447;-52
2022/10/04 00:43:09;;;;;;;2.67;2.57;;;;;;;6.95;100.00;101066.94;5039747;28;20994;-53
2022/10/04 00:45:40;;;;;;;3.43;1.53;;;;;;;6.86;100.00;101069.63;5032021;28;20440;-52
2022/10/04 00:48:06;;;;;;;0.90;0.90;;;;;;;6.80;100.00;101063.44;5029795;28;20868;-53
2022/10/04 00:50:38;;;;;;;1.37;1.13;;;;;;;6.65;100.00;101070.47;5044480;28;20512;-52
2022/10/04 00:53:35;;;;;;;2.17;1.50;;;;;;;6.84;100.00;101074.88;5047776;28;20870;-53
2022/10/04 00:56:06;;;;;;;1.03;1.03;;;;;;;6.87;100.00;101066.97;5029557;28;20498;-52
2022/10/04 00:58:45;;;;;;;0.90;0.80;;;;;;;6.78;100.00;101069.59;5035951;28;20447;-53
2022/10/04 01:01:12;;;;;;;1.63;1.47;;;;;;;6.76;100.00;101064.31;5036735;28;20455;-53
2022/10/04 01:03:43;;;;;;;2.13;2.03;;;;;;;6.88;100.00;101062.56;5042919;28;20463;-53
2022/10/04 01:06:12;;;;;;;1.80;1.10;;;;;;;6.95;100.00;101062.53;5042503;28;20466;-53
2022/10/04 01:08:45;;;;;;;1.47;1.37;;;;;;;6.96;100.00;101060.78;5042728;28;20511;-52
2022/10/04 01:11:21;;;;;;;1.90;1.80;;;;;;;7.05;100.00;101063.41;5042821;28;20447;-52
2022/10/04 01:13:56;;;;;;;1.90;1.80;;;;;;;6.94;100.00;101063.41;5038589;28;20465;-53
2022/10/04 01:16:27;;;;;;;3.37;1.13;;;;;;;6.88;100.00;101058.16;5035192;28;20516;-52
2022/10/04 01:18:53;;;;;;;2.50;1.83;;;;;;;7.05;100.00;101061.66;5038052;28;20458;-53
2022/10/04 01:21:19;;;;;;;0.97;0.97;;;;;;;7.09;100.00;101054.56;5042326;28;20948;-53
2022/10/04 01:23:49;;;;;;;1.73;1.57;;;;;;;7.07;100.00;101054.59;5037257;28;20450;-53
2022/10/04 01:26:28;;;;;;;2.23;1.87;;;;;;;7.12;100.00;101059.84;5042584;28;20502;-52
2022/10/04 01:29:00;;;;;;;1.27;1.17;;;;;;;7.15;100.00;101051.94;5029079;28;20459;-53
2022/10/04 01:31:28;;;;;;;2.23;2.13;;;;;;;7.25;100.00;101051.00;5019514;28;20456;-52
2022/10/04 01:33:55;;;;;;;2.50;2.40;;;;;;;7.36;100.00;101043.06;5042374;28;20451;-53
2022/10/04 01:36:21;;;;;;;3.00;2.73;;;;;;;7.50;100.00;101037.72;5036471;28;20539;-53
2022/10/04 01:38:49;;;;;;;2.80;2.20;;;;;;;7.49;100.00;101035.94;5035116;28;20460;-53
2022/10/04 01:41:24;;;;;;;5.00;2.97;;;;;;;7.49;100.00;101028.00;5040778;28;20549;-53
2022/10/04 01:43:56;;;;;;;1.10;1.03;;;;;;;7.29;100.00;101031.63;5042252;28;20450;-50
2022/10/04 01:46:27;;;;;;;4.03;1.50;;;;;;;7.40;100.00;101027.19;5028937;28;20521;-51
2022/10/04 01:48:58;;;;;;;7.33;2.80;;;;;;;7.37;100.00;101026.28;5041976;28;20447;-50
2022/10/04 01:51:40;;;;;;;2.03;1.93;;;;;;;7.40;100.00;101024.53;5040134;28;20947;-50
2022/10/04 01:54:17;;;;;;;3.07;2.87;;;;;;;7.31;100.00;101023.69;5024985;28;20715;-50
2022/10/04 01:56:49;;;;;;;2.20;2.00;;;;;;;7.42;100.00;101016.59;5034861;28;20499;-53
2022/10/04 01:59:25;;;;;;;0.80;0.80;;;;;;;7.22;100.00;101019.28;5038535;28;20455;-53
2022/10/04 02:02:03;;;;;;;0.70;0.70;;;;;;;7.38;100.00;101015.69;5043216;28;20500;-53
2022/10/04 02:04:33;;;;;;;2.20;1.47;;;;;;;7.29;100.00;101018.41;5035300;28;21018;-53
2022/10/04 02:07:02;;;;;;;1.77;1.60;;;;;;;7.41;100.00;101013.06;5023004;28;20524;-53
2022/10/04 02:09:32;;;;;;;1.20;1.10;;;;;;;6.84;100.00;100996.47;5034996;28;20474;-53
2022/10/04 02:12:00;;;;;;;1.80;1.33;;;;;;;7.31;100.00;100990.19;5040658;28;20990;-53
2022/10/04 02:14:32;;;;;;;1.47;1.37;;;;;;;7.26;100.00;100991.06;5042112;28;20524;-53
2022/10/04 02:17:02;;;;;;;2.10;2.00;;;;;;;7.28;100.00;100981.41;5034281;28;21019;-53
2022/10/04 02:19:38;;;;;;;1.60;1.17;;;;;;;7.26;100.00;100993.72;5041096;28;20458;-53
2022/10/04 02:22:08;;;;;;;0.60;0.60;;;;;;;7.27;100.00;100983.16;5037206;28;20501;-53
2022/10/04 02:24:37;;;;;;;2.20;2.00;;;;;;;7.40;100.00;100981.31;5041826;28;20451;-52
2022/10/04 02:27:05;;;;;;;1.17;1.17;;;;;;;7.19;100.00;100984.94;5042380;28;20524;-53
2022/10/04 02:29:31;;;;;;;0.83;0.80;;;;;;;6.81;100.00;100978.00;5038747;28;20509;-53
2022/10/04 02:34:46;;;;;;;2.20;0.70;;;;;;;6.87;100.00;100984.16;5036686;28;20508;-53
2022/10/04 02:37:14;;;;;;;0.73;0.57;;;;;;;6.82;100.00;100994.72;5037348;28;20478;-53
2022/10/04 02:39:51;;;;;;;0.90;0.90;;;;;;;6.91;100.00;100988.56;5042588;28;20451;-53
2022/10/04 02:42:36;;;;;;;1.23;1.13;;;;;;;6.74;100.00;100997.41;5045776;28;20467;-53
2022/10/04 02:45:19;;;;;;;1.30;1.23;;;;;;;6.81;100.00;100998.25;5037865;28;20820;-52
2022/10/04 02:47:52;;;;;;;2.10;2.00;;;;;;;7.01;100.00;100992.94;5030288;28;20471;-53
2022/10/04 02:50:34;;;;;;;0.80;0.80;;;;;;;7.00;100.00;100980.63;5038582;28;20454;-52
2022/10/04 02:53:10;;;;;;;1.70;1.57;;;;;;;7.06;100.00;100978.81;5049954;28;20875;-53
2022/10/04 02:55:42;;;;;;;1.77;1.67;;;;;;;7.05;100.00;100985.00;5025539;28;20903;-54
2022/10/04 02:58:13;;;;;;;0.97;0.90;;;;;;;7.09;100.00;100980.56;5038283;28;20455;-53
2022/10/04 03:00:49;;;;;;;1.03;0.73;;;;;;;7.19;100.00;100976.13;5038916;28;20467;-53
2022/10/04 03:03:26;;;;;;;0.87;0.87;;;;;;;7.24;100.00;100975.22;5043633;28;20451;-53
2022/10/04 03:05:59;;;;;;;1.53;1.23;;;;;;;7.21;100.00;100975.25;5042346;28;20473;-53
2022/10/04 03:08:29;;;;;;;0.83;0.83;;;;;;;7.27;100.00;100969.94;5038010;28;20469;-53
2022/10/04 03:10:58;;;;;;;3.23;0.80;;;;;;;7.23;100.00;100969.94;5039047;28;20452;-53
2022/10/04 03:13:26;;;;;;;1.97;1.73;;;;;;;7.37;100.00;100976.94;5044479;28;21263;-53
2022/10/04 03:15:53;;;;;;;0.80;0.70;;;;;;;7.45;100.00;100981.31;5044396;28;20561;-52
2022/10/04 03:18:20;;;;;;;4.50;1.97;;;;;;;7.43;100.00;100982.22;5037362;28;20490;-53
2022/10/04 03:20:46;;;;;;;3.23;2.93;;;;;;;7.46;100.00;100975.13;5045798;28;21078;-53
2022/10/04 03:23:17;;;;;;;1.40;1.30;;;;;;;7.46;100.00;100985.72;5036645;28;20521;-53
2022/10/04 03:25:59;;;;;;;1.03;0.93;;;;;;;7.50;100.00;100982.16;5034684;28;20456;-53
2022/10/04 03:28:27;;;;;;;4.10;2.70;;;;;;;7.56;100.00;100976.84;5041625;28;20447;-53
2022/10/04 03:30:56;;;;;;;3.43;2.40;;;;;;;7.63;100.00;100974.16;5044321;28;20460;-52
2022/10/04 03:33:25;;;;;;;0.87;0.87;;;;;;;7.36;100.00;100985.75;5039023;28;20465;-53
2022/10/04 03:35:54;;;;;;;1.67;1.57;;;;;;;7.40;100.00;100978.66;5037629;28;20490;-53
2022/10/04 03:38:22;;;;;;;11.20;1.40;;;;;;;7.41;100.00;100981.34;5040180;28;20537;-53
2022/10/04 03:40:55;;;;;;;1.37;1.13;;;;;;;7.45;100.00;100970.75;5044189;28;20463;-53
2022/10/04 03:43:33;;;;;;;1.23;1.03;;;;;;;7.39;100.00;100976.91;5040818;28;20551;-53
2022/10/04 03:46:00;;;;;;;1.27;1.00;;;;;;;7.37;100.00;100974.28;5018869;28;20451;-53
2022/10/04 03:48:34;;;;;;;1.37;1.33;;;;;;;7.29;100.00;100978.75;5044036;28;20466;-53
2022/10/04 03:51:04;;;;;;;0.60;0.30;;;;;;;7.33;100.00;100969.91;5039610;28;20985;-53
2022/10/04 03:53:36;;;;;;;0.57;0.50;;;;;;;7.03;100.00;100983.25;5045471;28;20475;-53
2022/10/04 03:56:12;;;;;;;0.73;0.73;;;;;;;7.02;100.00;100984.13;5041005;28;20552;-53
2022/10/04 03:58:39;;;;;;;0.60;0.60;;;;;;;7.16;100.00;100992.88;5036888;28;20520;-53
2022/10/04 04:01:13;;;;;;;0.70;0.43;;;;;;;7.19;100.00;100989.34;5038935;28;20532;-54
2022/10/04 04:04:00;;;;;;;1.50;1.40;;;;;;;7.22;100.00;100984.94;5038058;28;20959;-53
2022/10/04 04:06:36;;;;;;;0.50;0.50;;;;;;;7.22;100.00;100978.75;5036688;28;20551;-53
2022/10/04 04:09:05;;;;;;;1.33;1.23;;;;;;;7.23;100.00;100973.47;5038534;28;20452;-53
2022/10/04 04:11:32;;;;;;;2.87;0.97;;;;;;;7.21;100.00;100977.88;5043313;28;20983;-53
2022/10/04 04:14:05;;;;;;;0.67;0.67;;;;;;;7.18;100.00;100972.63;5040989;28;21124;-52
2022/10/04 04:16:33;;;;;;;0.47;0.40;;;;;;;7.11;100.00;100978.78;5036302;28;20494;-53
2022/10/04 04:19:04;;;;;;;0.53;0.53;;;;;;;7.24;100.00;100974.34;5038216;28;20494;-53
2022/10/04 04:21:30;;;;;;;1.10;1.10;;;;;;;7.28;100.00;100973.47;5043029;28;20456;-53
2022/10/04 04:24:04;;;;;;;2.63;2.40;;;;;;;7.20;100.00;100976.13;5043152;28;20497;-53
2022/10/04 04:26:38;;;;;;;1.10;1.10;;;;;;;7.26;100.00;100969.91;5024790;28;20463;-53
2022/10/04 04:29:11;;;;;;;0.63;0.63;;;;;;;7.40;100.00;100965.44;5036256;28;20455;-53
2022/10/04 04:31:52;;;;;;;0.70;0.63;;;;;;;7.47;100.00;100976.91;5040542;28;20487;-53
2022/10/04 04:34:24;;;;;;;0.50;0.40;;;;;;;7.39;100.00;100971.63;5043189;28;20451;-53
2022/10/04 04:36:55;;;;;;;1.20;1.00;;;;;;;7.33;100.00;100969.03;5029997;28;21091;-53
2022/10/04 04:39:43;;;;;;;2.33;0.90;;;;;;;7.21;100.00;100964.66;5042556;28;21010;-53
2022/10/04 04:42:13;;;;;;;4.30;1.23;;;;;;;7.02;100.00;100963.84;5037384;28;20459;-53
2022/10/04 04:44:59;;;;;;;1.33;1.33;;;;;;;7.08;100.00;100957.66;5040344;28;20456;-53
2022/10/04 04:47:37;;;;;;;10.90;2.60;;;;;;;7.19;100.00;100947.94;5035205;28;20470;-53
2022/10/04 04:50:11;;;;;;;1.60;0.93;;;;;;;7.25;100.00;100955.81;5036606;28;20442;-52
2022/10/04 04:52:39;;;;;;;0.40;0.40;;;;;;;7.17;100.00;100952.34;5038628;28;20531;-53
2022/10/04 04:55:17;;;;;;;0.97;0.97;;;;;;;7.22;100.00;100952.31;5034313;28;20957;-53
2022/10/04 04:57:43;;;;;;;0.87;0.60;;;;;;;7.28;100.00;100947.91;5039985;28;20482;-53
2022/10/04 05:00:17;;;;;;;1.20;0.90;;;;;;;7.22;100.00;100947.91;5035615;28;20461;-53
2022/10/04 05:02:55;;;;;;;1.43;1.33;;;;;;;7.19;100.00;100953.22;5045875;28;20939;-52
2022/10/04 05:05:29;;;;;;;1.00;0.90;;;;;;;7.11;100.00;100947.94;5019710;28;20533;-53
2022/10/04 05:08:15;;;;;;;2.27;1.23;;;;;;;7.18;100.00;100942.66;5035546;28;20456;-53
2022/10/04 05:10:45;;;;;;;1.37;0.70;;;;;;;7.06;100.00;100939.16;5034624;28;20478;-54
2022/10/04 05:13:13;;;;;;;0.90;0.90;;;;;;;7.11;100.00;100939.13;5042206;28;20455;-52
2022/10/04 05:15:40;;;;;;;0.60;0.60;;;;;;;7.15;100.00;100929.44;5039940;28;20459;-53
2022/10/04 05:18:27;;;;;;;1.30;1.07;;;;;;;7.16;100.00;100939.13;5031214;28;20833;-51
2022/10/04 05:20:55;;;;;;;3.60;1.33;;;;;;;7.03;100.00;100946.25;5038535;28;21019;-53
2022/10/04 05:23:21;;;;;;;1.87;1.77;;;;;;;6.94;100.00;100940.97;5037420;28;20462;-53
2022/10/04 05:25:49;;;;;;;1.57;1.57;;;;;;;6.94;100.00;100949.78;5035040;28;20996;-53
2022/10/04 05:28:19;;;;;;;1.37;1.17;;;;;;;7.03;100.00;100956.81;5033691;28;20455;-52
2022/10/04 05:31:14;;;;;;;1.50;1.40;;;;;;;7.03;100.00;100962.09;5029875;28;20963;-53
2022/10/04 05:33:46;;;;;;;1.80;1.70;;;;;;;7.05;100.00;100969.13;5033220;28;20530;-53
2022/10/04 05:36:40;;;;;;;1.50;0.80;;;;;;;6.94;100.00;100956.81;5035435;28;20544;-53
2022/10/04 05:39:32;;;;;;;3.00;2.87;;;;;;;6.95;100.00;100958.59;5035219;28;20822;-53
2022/10/04 05:42:24;;;;;;;2.80;2.63;;;;;;;6.98;100.00;100958.56;5035229;28;20782;-52
2022/10/04 05:44:53;;;;;;;1.83;1.73;;;;;;;7.16;100.00;100960.28;5037878;28;20801;-53
2022/10/04 05:47:23;;;;;;;1.80;1.70;;;;;;;7.20;100.00;100962.03;5033762;28;20475;-54
2022/10/04 05:49:54;;;;;;;1.77;1.30;;;;;;;7.10;100.00;100969.97;5036327;28;20928;-53
2022/10/04 05:52:29;;;;;;;2.03;1.90;;;;;;;7.33;100.00;100964.63;5046197;28;21005;-53
2022/10/04 05:55:10;;;;;;;5.03;3.07;;;;;;;7.28;100.00;100961.13;5035298;28;20882;-53
2022/10/04 05:57:56;;;;;;;1.03;0.80;;;;;;;7.24;100.00;100962.00;5038560;28;20499;-53
2022/10/04 06:00:48;;;;;;;1.33;1.13;;;;;;;7.21;100.00;100955.84;5036047;28;20453;-53
2022/10/04 06:04:03;;;;;;;0.70;0.60;;;;;;;7.21;100.00;100953.22;5038728;28;20455;-53
2022/10/04 06:06:32;;;;;;;0.73;0.73;;;;;;;7.11;100.00;100955.00;5025973;28;20550;-53
2022/10/04 06:09:17;;;;;;;1.40;1.30;;;;;;;7.23;100.00;100951.44;5043185;28;20471;-54
2022/10/04 06:12:00;;;;;;;1.43;1.33;;;;;;;7.16;100.00;100960.28;5039585;28;20446;-52
2022/10/04 06:15:07;;;;;;;0.83;0.83;;;;;;;7.11;100.00;100961.16;5037874;28;20576;-52
2022/10/04 06:17:47;;;;;;;1.27;0.60;;;;;;;7.39;100.00;100974.28;5038682;28;20575;-52
2022/10/04 06:20:31;;;;;;;0.60;0.60;;;;;;;7.18;100.00;100964.69;5042742;28;21006;-52
2022/10/04 06:23:02;;;;;;;0.50;0.30;;;;;;;7.13;100.00;100969.13;5045708;28;20447;-52
2022/10/04 06:25:37;;;;;;;1.73;1.63;;;;;;;7.08;100.00;100968.22;5045318;28;21058;-52
2022/10/04 06:28:26;;;;;;;0.60;0.60;;;;;;;7.10;100.00;100972.63;5044466;28;20936;-51
2022/10/04 06:31:20;;;;;;;0.47;0.47;;;;;;;7.07;100.00;100983.22;5045614;28;20534;-51
2022/10/04 06:34:02;;;;;;;1.80;1.20;;;;;;;7.02;100.00;100981.47;5040356;28;20446;-51
2022/10/04 06:36:32;;;;;;;1.07;0.40;;;;;;;7.00;100.00;100977.97;5042469;28;20502;-51
2022/10/04 06:39:17;;;;;;;1.50;0.47;;;;;;;7.39;100.00;100988.38;5038843;28;21094;-51
2022/10/04 06:42:15;;;;;;;0.80;0.80;;;;;;;7.33;100.00;100990.19;5038795;28;20455;-52
2022/10/04 06:45:06;;;;;;;0.50;0.37;;;;;;;7.33;100.00;100993.69;5043009;28;20496;-51
2022/10/04 06:48:01;;;;;;;1.33;0.83;;;;;;;7.35;100.00;100989.28;5019218;28;20460;-51
2022/10/04 06:50:50;;;;;;;0.83;0.83;;;;;;;7.30;100.00;100993.72;5026040;28;20521;-51
2022/10/04 06:53:25;;;;;;;1.00;0.83;;;;;;;7.22;100.00;100991.97;5045411;28;20458;-51
2022/10/04 06:56:11;;;;;;;1.10;1.00;;;;;;;7.29;100.00;100980.50;5040195;28;20847;-51
2022/10/04 06:58:52;;;;;;;1.27;1.10;;;;;;;7.32;100.00;100977.84;5038198;28;20450;-51
2022/10/04 07:01:22;;;;;;;1.13;0.87;;;;;;;7.56;100.00;100974.22;5037933;28;21405;-51
2022/10/04 07:04:04;;;;;;;0.70;0.70;;;;;;;7.63;100.00;100978.56;5044594;28;20455;-51
2022/10/04 07:06:46;;;;;;;0.67;0.67;;;;;;;7.55;100.00;100988.34;5045112;28;20475;-52
2022/10/04 07:09:23;;;;;;;0.83;0.73;;;;;;;7.78;100.00;100994.34;5043951;28;20497;-52
2022/10/04 07:12:07;;;;;;;0.80;0.80;;;;;;;7.97;100.00;100979.25;5044808;28;20451;-52
2022/10/04 07:14:42;;;;;;;2.10;1.80;;;;;;;8.21;100.00;100983.47;5044683;28;20451;-51
2022/10/04 07:17:18;;;;;;;4.40;0.87;;;;;;;8.24;100.00;100984.34;5041234;28;20489;-51
2022/10/04 07:19:48;;;;;;;1.17;1.17;;;;;;;8.24;100.00;100991.41;5037819;28;20913;-52
2022/10/04 07:22:36;;;;;;;2.20;0.90;;;;;;;8.39;100.00;100996.63;5039116;28;20851;-52
2022/10/04 07:25:13;;;;;;;0.63;0.63;;;;;;;8.35;100.00;100994.88;5039847;28;20455;-52
2022/10/04 07:29:19;;;;;;;2.47;2.10;;;;;;;8.10;100.00;100978.28;5037348;28;20507;-52
2022/10/04 07:30:45;;;;;;;1.80;1.67;;;;;;;8.56;100.00;100989.41;5037478;28;20547;-52
2022/10/04 07:33:19;;;;;;;3.53;3.33;;;;;;;8.55;100.00;100977.03;5040981;28;20450;-52
2022/10/04 07:35:53;;;;;;;2.03;1.93;;;;;;;8.47;100.00;100978.88;5036102;28;20463;-52
2022/10/04 07:38:27;;;;;;;1.97;1.87;;;;;;;8.66;100.00;100979.59;5039863;28;20643;-51
2022/10/04 07:40:59;;;;;;;1.87;1.40;;;;;;;8.72;100.00;100982.19;5043551;28;20809;-51
2022/10/04 07:43:29;;;;;;;4.20;2.50;;;;;;;9.00;100.00;100973.94;5043762;28;20453;-52
2022/10/04 07:46:39;;;;;;;2.00;1.90;;;;;;;8.88;100.00;100973.16;5042910;28;20980;-52
2022/10/04 07:49:12;;;;;;;1.43;1.33;;;;;;;9.22;100.00;100971.91;5042138;28;20452;-52
2022/10/04 07:52:11;;;;;;;1.27;1.17;;;;;;;9.32;100.00;100969.16;5042609;28;21017;-52
2022/10/04 07:55:04;;;;;;;2.37;2.17;;;;;;;9.50;100.00;100976.84;5023462;28;20447;-52
2022/10/04 07:57:51;;;;;;;5.00;2.20;;;;;;;9.43;100.00;100969.84;5038995;28;20582;-52
2022/10/04 08:00:23;;;;;;;5.27;2.17;;;;;;;9.45;100.00;100972.50;5036920;28;20859;-51
2022/10/04 08:03:08;;;;;;;2.40;1.87;;;;;;;9.25;100.00;100975.41;5046995;28;20454;-51
2022/10/04 08:05:40;;;;;;;2.10;1.87;;;;;;;9.50;100.00;100981.28;5027425;28;20508;-51
2022/10/04 08:08:16;;;;;;;2.10;2.00;;;;;;;9.53;100.00;100986.56;5036667;28;20444;-51
2022/10/04 08:11:26;;;;;;;1.97;1.20;;;;;;;9.67;100.00;100987.25;5039295;28;20455;-52
2022/10/04 08:14:24;;;;;;;1.87;1.73;;;;;;;9.57;100.00;100982.06;5040129;28;20831;-51
2022/10/04 08:17:14;;;;;;;2.60;1.67;;;;;;;9.54;100.00;100984.78;5026102;28;20498;-52
2022/10/04 08:19:43;;;;;;;2.10;0.93;;;;;;;9.59;100.00;100983.81;5036342;28;21212;-52
2022/10/04 08:22:26;;;;;;;2.17;2.07;;;;;;;9.57;100.00;100977.63;5037717;28;20835;-52
2022/10/04 08:25:01;;;;;;;2.13;1.60;;;;;;;9.74;100.00;100969.47;5036643;28;20451;-51
2022/10/04 08:31:23;;;;;;;2.30;1.70;;;;;;;10.02;100.00;100969.94;5035406;28;20455;-52
2022/10/04 08:34:20;;;;;;;1.93;1.83;;;;;;;10.28;100.00;100964.22;5043193;28;20455;-52
2022/10/04 08:37:15;;;;;;;9.33;3.37;;;;;;;10.28;100.00;100966.88;5041586;28;20506;-51
2022/10/04 08:40:22;;;;;;;2.83;2.43;;;;;;;10.19;100.00;100972.31;5028523;28;21005;-51
2022/10/04 08:43:18;;;;;;;3.43;3.10;;;;;;;10.18;100.00;100981.19;5041036;28;20466;-52
2022/10/04 08:46:22;;;;;;;4.23;3.93;;;;;;;10.36;100.00;100980.91;5048143;28;20469;-51
2022/10/04 08:49:17;;;;;;;3.67;2.43;;;;;;;10.66;100.00;100979.50;5045097;28;20493;-52
2022/10/04 08:52:11;;;;;;;4.47;3.40;;;;;;;10.42;100.00;100977.31;5042028;28;20857;-52
2022/10/04 08:55:28;;;;;;;3.63;3.33;;;;;;;10.50;100.00;100973.59;5037163;28;20475;-52
2022/10/04 08:58:14;;;;;;;3.77;3.47;;;;;;;9.98;100.00;100969.09;5041400;28;20490;-52
2022/10/04 09:01:42;;;;;;;3.67;2.67;;;;;;;10.32;100.00;100969.47;5026181;28;20459;-52
2022/10/04 09:04:48;;;;;;;2.73;2.53;;;;;;;10.72;100.00;100960.81;4936901;28;20459;-52
2022/10/04 09:07:46;;;;;;;4.00;2.10;;;;;;;10.30;100.00;100965.09;5027456;28;20536;-52
2022/10/04 09:10:15;;;;;;;6.07;5.47;;;;;;;10.74;100.00;100960.78;5022748;28;20890;-52
2022/10/04 09:13:24;;;;;;;6.30;3.87;;;;;;;10.67;100.00;100962.66;5035601;28;20455;-52
2022/10/04 09:16:20;;;;;;;4.77;4.43;;;;;;;10.66;100.00;100956.47;5017485;28;20474;-52
2022/10/04 09:19:11;;;;;;;3.33;3.00;;;;;;;10.80;100.00;100950.00;5029793;28;20526;-52
2022/10/04 09:21:46;;;;;;;2.83;2.50;;;;;;;11.02;100.00;100959.34;5041700;28;20456;-52
2022/10/04 09:24:33;;;;;;;10.50;3.63;;;;;;;10.95;100.00;100957.69;5042307;28;20458;-52
2022/10/04 09:27:28;;;;;;;2.53;2.30;;;;;;;11.13;100.00;100953.81;5039248;28;20532;-52
2022/10/04 09:30:21;;;;;;;3.73;3.23;;;;;;;11.34;100.00;100953.34;5037625;28;20534;-52
2022/10/04 09:33:05;;;;;;;3.63;3.33;;;;;;;11.41;100.00;100949.66;5037076;28;20512;-52
2022/10/04 09:35:42;;;;;;;9.17;3.63;;;;;;;11.86;100.00;100947.78;5034710;28;20955;-52
2022/10/04 09:38:24;;;;;;;5.03;3.47;;;;;;;12.02;100.00;100956.28;5039558;28;20494;-52
2022/10/04 09:40:53;;;;;;;11.00;3.30;;;;;;;11.93;100.00;100945.00;5041702;28;20459;-52
2022/10/04 09:43:35;;;;;;;4.80;4.20;;;;;;;12.20;100.00;100948.75;5040213;28;20955;-52
2022/10/04 09:46:30;;;;;;;4.30;2.93;;;;;;;12.44;100.00;100946.34;5016852;28;20467;-52
2022/10/04 09:49:18;;;;;;;5.30;2.70;;;;;;;12.51;100.00;100940.88;5042086;28;20574;-52
2022/10/04 09:52:20;;;;;;;9.93;4.17;;;;;;;12.96;100.00;100930.75;5041297;28;20454;-52
2022/10/04 09:55:20;;;;;;;10.00;4.23;;;;;;;12.64;100.00;100931.66;5015913;28;20454;-52
2022/10/04 09:58:15;;;;;;;5.03;3.10;;;;;;;12.78;100.00;100931.28;5030769;28;20511;-52
2022/10/04 10:01:07;;;;;;;4.47;3.80;;;;;;;12.75;100.00;100927.78;5026220;28;20455;-52
2022/10/04 10:03:47;;;;;;;7.03;3.77;;;;;;;13.03;100.00;100924.34;5040040;28;20489;-52
2022/10/04 10:06:49;;;;;;;6.40;3.57;;;;;;;13.55;100.00;100928.16;5041345;28;21006;-53
2022/10/04 10:15:31;;;;;;;4.20;3.80;;;;;;;13.71;100.00;100917.91;5023597;28;20446;-52
2022/10/04 10:18:15;;;;;;;4.00;3.70;;;;;;;14.07;100.00;100924.72;5035100;28;20520;-52
2022/10/04 10:21:32;;;;;;;4.40;3.53;;;;;;;14.37;100.00;100922.81;5035242;28;20577;-52
2022/10/04 10:24:12;;;;;;;7.47;4.23;;;;;;;14.19;100.00;100924.31;5029148;28;20454;-52
2022/10/04 10:27:26;;;;;;;9.23;4.30;;;;;;;14.44;100.00;100915.50;5037081;28;20485;-52
2022/10/04 10:30:14;;;;;;;3.13;2.93;;;;;;;14.67;100.00;100918.25;5023969;28;20512;-52
2022/10/04 10:32:49;;;;;;;5.93;4.10;;;;;;;14.63;100.00;100910.38;5034441;28;20454;-53
2022/10/04 10:35:47;;;;;;;8.73;5.20;;;;;;;14.51;100.00;100915.22;5035325;28;20458;-53
2022/10/04 10:38:20;;;;;;;15.07;5.90;;;;;;;14.63;100.00;100921.06;5036885;28;21298;-53
2022/10/04 10:41:34;;;;;;;4.20;3.87;;;;;;;15.01;100.00;100917.91;5034858;28;20454;-54
2022/10/04 10:44:28;;;;;;;9.60;5.47;;;;;;;15.29;100.00;100915.06;5034309;28;20443;-53
2022/10/04 10:47:00;;;;;;;6.47;5.87;;;;;;;14.55;100.00;100923.16;5034405;28;20468;-53
2022/10/04 10:50:02;;;;;;;6.30;4.40;;;;;;;14.55;100.00;100923.16;5042369;28;20451;-53
2022/10/04 10:52:29;;;;;;;5.30;4.10;;;;;;;14.24;100.00;100929.50;5008953;28;20851;-52
2022/10/04 10:55:13;;;;;;;4.53;4.23;;;;;;;14.34;100.00;100930.94;5037835;28;20497;-53
2022/10/04 10:58:26;;;;;;;4.63;4.20;;;;;;;14.59;100.00;100925.66;5041134;28;20541;-54
2022/10/04 11:01:12;;;;;;;17.87;5.20;;;;;;;14.36;100.00;100937.13;5041133;28;20447;-53
2022/10/04 11:04:14;;;;;;;9.00;3.60;;;;;;;14.57;100.00;100923.97;5044593;28;20482;-53
2022/10/04 11:07:15;;;;;;;8.30;3.73;;;;;;;15.07;100.00;100919.47;5044466;28;20873;-53
2022/10/04 11:09:50;;;;;;;4.30;3.07;;;;;;;14.86;100.00;100920.25;5044389;28;20451;-53
2022/10/04 11:12:37;;;;;;;8.70;4.43;;;;;;;14.83;100.00;100915.91;5041713;28;20519;-53
2022/10/04 11:15:37;;;;;;;4.00;3.70;;;;;;;15.08;100.00;100918.56;5043869;28;20459;-53
2022/10/04 11:18:41;;;;;;;9.23;3.70;;;;;;;15.55;100.00;100922.09;5044228;28;20495;-53
2022/10/04 11:21:35;;;;;;;9.30;5.23;;;;;;;15.42;100.00;100910.13;5044378;28;20517;-51
2022/10/04 11:24:31;;;;;;;4.87;4.27;;;;;;;15.44;100.00;100905.56;5043951;28;20429;-50
2022/10/04 11:27:04;;;;;;;8.33;4.40;;;;;;;15.66;100.00;100901.16;5039043;28;20597;-50
2022/10/04 11:29:30;;;;;;;4.40;4.00;;;;;;;15.55;100.00;100911.38;5037237;28;20533;-51
2022/10/04 11:31:59;;;;;;;7.50;5.70;;;;;;;15.61;100.00;100916.53;5037971;28;20430;-51
2022/10/04 11:34:47;;;;;;;3.93;3.63;;;;;;;15.70;99.90;100904.56;5044257;28;20535;-54
2022/10/04 11:37:20;;;;;;;6.33;3.33;;;;;;;15.94;99.73;100889.31;5044933;28;20494;-53
2022/10/04 11:39:58;;;;;;;5.53;5.10;;;;;;;15.88;99.21;100879.69;5041528;28;20512;-53
2022/10/04 11:42:37;;;;;;;4.00;3.70;;;;;;;16.01;98.84;100880.06;5037213;28;20446;-53
2022/10/04 11:45:07;;;;;;;7.23;4.87;;;;;;;15.94;98.36;100883.94;5037280;28;20456;-53
2022/10/04 11:47:42;;;;;;;11.57;6.23;;;;;;;15.77;99.62;100884.66;5025197;28;20549;-53
2022/10/04 11:50:28;;;;;;;3.43;3.23;;;;;;;15.88;100.00;100877.00;5037015;28;20509;-53
2022/10/04 11:53:36;;;;;;;2.83;2.63;;;;;;;15.63;100.00;100869.13;5048552;28;20970;-53
2022/10/04 11:56:18;;;;;;;10.90;4.53;;;;;;;15.87;99.89;100861.00;5040024;28;20553;-53
2022/10/04 11:59:03;;;;;;;4.23;3.93;;;;;;;15.96;99.53;100861.50;5042502;28;20495;-53
2022/10/04 12:02:15;;;;;;;7.60;4.83;;;;;;;16.33;98.44;100859.94;5042479;28;20515;-53
2022/10/04 12:04:52;;;;;;;9.30;4.27;;;;;;;16.16;98.80;100849.03;5048601;28;20443;-53
2022/10/04 12:08:00;;;;;;;9.00;5.13;;;;;;;16.23;98.61;100850.53;5040089;28;20523;-53
2022/10/04 12:10:34;;;;;;;8.73;5.60;;;;;;;15.80;99.83;100838.06;5017747;28;20462;-53
2022/10/04 12:13:13;;;;;;;4.20;3.47;;;;;;;15.96;99.96;100841.84;5036505;28;20451;-53
2022/10/04 12:15:59;;;;;;;4.87;3.63;;;;;;;15.91;99.60;100842.06;5036597;28;20455;-53
2022/10/04 12:18:40;;;;;;;4.10;3.80;;;;;;;16.20;98.74;100838.13;5026377;28;20908;-53
2022/10/04 12:21:19;;;;;;;4.60;3.87;;;;;;;16.22;97.77;100836.25;5036561;28;20458;-53
2022/10/04 12:24:03;;;;;;;3.97;3.70;;;;;;;16.20;98.97;100834.59;5038060;28;20448;-53
2022/10/04 12:26:48;;;;;;;7.03;4.23;;;;;;;16.20;97.68;100830.09;5037563;28;20532;-53
2022/10/04 12:29:33;;;;;;;4.53;4.03;;;;;;;16.48;97.82;100831.56;5036185;28;20922;-53
2022/10/04 12:32:09;;;;;;;5.00;4.50;;;;;;;16.54;97.79;100820.53;5036965;28;20452;-53
2022/10/04 12:35:12;;;;;;;6.13;4.10;;;;;;;16.74;94.98;100825.94;5024658;28;20799;-53
2022/10/04 12:37:57;;;;;;;15.00;3.70;;;;;;;16.85;95.12;100822.75;5036033;28;20506;-53